createdAt,value
2022-11-30T00:01:18.548Z,2.30
2022-11-30T00:03:46.300Z,2.20
2022-11-30T00:06:15.381Z,2.20
2022-11-30T00:08:42.850Z,2.20
2022-11-30T00:11:10.813Z,2.20
2022-11-30T00:13:37.794Z,2.10
2022-11-30T00:16:05.080Z,2.20
2022-11-30T00:18:32.112Z,2.20
2022-11-30T00:21:04.322Z,2.20
2022-11-30T00:23:36.490Z,2.10
2022-11-30T00:26:05.041Z,2.10
2022-11-30T00:28:32.657Z,2.10
2022-11-30T00:31:05.496Z,2.20
2022-11-30T00:33:37.455Z,2.10
2022-11-30T00:36:07.731Z,2.10
2022-11-30T00:38:35.876Z,2.10
2022-11-30T00:41:03.195Z,2.10
2022-11-30T00:43:31.383Z,2.10
2022-11-30T00:45:58.633Z,2.10
2022-11-30T00:48:25.672Z,2.00
2022-11-30T00:50:52.885Z,2.10
2022-11-30T00:53:21.209Z,2.00
2022-11-30T00:55:48.539Z,2.00
2022-11-30T00:58:15.876Z,2.00
2022-11-30T01:00:43.232Z,1.90
2022-11-30T01:03:10.754Z,2.00
2022-11-30T01:05:38.799Z,2.00
2022-11-30T01:08:07.817Z,2.00
2022-11-30T01:10:36.222Z,2.10
2022-11-30T01:13:03.920Z,2.00
2022-11-30T01:15:31.202Z,2.00
2022-11-30T01:18:00.336Z,2.00
2022-11-30T01:20:27.205Z,2.10
2022-11-30T01:22:55.744Z,2.10
2022-11-30T01:25:23.050Z,2.10
2022-11-30T01:27:50.770Z,2.10
2022-11-30T01:30:18.656Z,2.00
2022-11-30T01:32:45.583Z,2.20
2022-11-30T01:35:12.585Z,2.20
2022-11-30T01:37:39.427Z,2.10
2022-11-30T01:40:07.140Z,2.10
2022-11-30T01:42:34.054Z,2.10
2022-11-30T01:45:02.413Z,2.10
2022-11-30T01:47:34.572Z,2.10
2022-11-30T01:50:24.582Z,2.00
2022-11-30T01:52:55.684Z,2.10
2022-11-30T01:55:26.403Z,2.00
2022-11-30T01:57:59.088Z,2.00
2022-11-30T02:00:26.008Z,1.90
2022-11-30T02:02:59.875Z,2.00
2022-11-30T02:05:27.541Z,1.90
2022-11-30T02:07:54.841Z,1.90
2022-11-30T02:10:28.659Z,1.90
2022-11-30T02:13:29.193Z,2.00
2022-11-30T02:16:16.787Z,2.00
2022-11-30T02:19:05.667Z,1.90
2022-11-30T02:21:46.287Z,2.00
2022-11-30T02:24:19.161Z,2.00
2022-11-30T02:27:26.367Z,1.90
2022-11-30T02:29:59.052Z,1.90
2022-11-30T02:32:28.623Z,1.90
2022-11-30T02:34:58.626Z,1.90
2022-11-30T02:37:27.754Z,1.90
2022-11-30T02:39:54.619Z,1.80
2022-11-30T02:42:21.804Z,1.80
2022-11-30T02:44:52.371Z,1.80
2022-11-30T02:47:41.390Z,1.80
2022-11-30T02:50:25.788Z,1.80
2022-11-30T02:52:53.638Z,1.90
2022-11-30T02:55:20.788Z,1.90
2022-11-30T02:57:47.870Z,1.80
2022-11-30T03:00:16.021Z,1.70
2022-11-30T03:02:42.908Z,1.70
2022-11-30T03:05:10.199Z,1.70
2022-11-30T03:07:37.742Z,1.70
2022-11-30T03:10:06.102Z,1.80
2022-11-30T03:12:33.059Z,1.80
2022-11-30T03:14:59.897Z,1.70
2022-11-30T03:17:26.716Z,1.80
2022-11-30T03:19:53.555Z,1.70
2022-11-30T03:22:20.372Z,1.70
2022-11-30T03:24:47.563Z,1.70
2022-11-30T03:27:14.769Z,1.70
2022-11-30T03:29:41.796Z,1.70
2022-11-30T03:32:08.761Z,1.60
2022-11-30T03:34:35.623Z,1.60
2022-11-30T03:37:02.570Z,1.70
2022-11-30T03:39:29.446Z,1.60
2022-11-30T03:41:56.327Z,1.70
2022-11-30T03:44:23.159Z,1.70
2022-11-30T03:46:49.969Z,1.70
2022-11-30T03:49:16.892Z,1.60
2022-11-30T03:51:43.757Z,1.60
2022-11-30T03:54:10.613Z,1.70
2022-11-30T03:56:37.560Z,1.70
2022-11-30T03:59:04.374Z,1.70
2022-11-30T04:01:31.444Z,1.70
2022-11-30T04:03:58.324Z,1.70
2022-11-30T04:06:25.305Z,1.70
2022-11-30T04:08:52.130Z,1.70
2022-11-30T04:11:19.096Z,1.70
2022-11-30T04:13:46.016Z,1.70
2022-11-30T04:16:13.065Z,1.80
2022-11-30T04:18:40.231Z,1.80
2022-11-30T04:21:07.935Z,1.70
2022-11-30T04:23:38.619Z,1.60
2022-11-30T04:26:07.501Z,1.70
2022-11-30T04:28:35.316Z,1.70
2022-11-30T04:31:03.005Z,1.80
2022-11-30T04:33:30.420Z,1.70
2022-11-30T04:35:59.290Z,1.70
2022-11-30T04:38:26.422Z,1.80
2022-11-30T04:40:53.392Z,1.70
2022-11-30T04:43:20.418Z,1.70
2022-11-30T04:45:47.813Z,1.80
2022-11-30T04:48:16.504Z,1.80
2022-11-30T04:50:43.978Z,1.60
2022-11-30T04:53:11.780Z,1.80
2022-11-30T04:55:38.748Z,1.80
2022-11-30T04:58:06.795Z,1.80
2022-11-30T05:00:35.316Z,1.80
2022-11-30T05:03:02.524Z,1.70
2022-11-30T05:05:29.435Z,1.70
2022-11-30T05:07:58.609Z,1.80
2022-11-30T05:10:27.209Z,1.90
2022-11-30T05:12:54.276Z,1.80
2022-11-30T05:15:21.084Z,1.90
2022-11-30T05:17:47.952Z,1.90
2022-11-30T05:20:15.107Z,1.80
2022-11-30T05:22:42.006Z,1.80
2022-11-30T05:25:09.560Z,1.80
2022-11-30T05:27:36.950Z,1.90
2022-11-30T05:30:04.354Z,1.80
2022-11-30T05:32:31.277Z,1.80
2022-11-30T05:34:58.605Z,1.80
2022-11-30T05:37:25.753Z,1.80
2022-11-30T05:39:52.572Z,1.70
2022-11-30T05:42:19.503Z,1.70
2022-11-30T05:44:47.817Z,1.60
2022-11-30T05:47:15.204Z,1.60
2022-11-30T05:49:42.119Z,1.70
2022-11-30T05:52:08.986Z,1.70
2022-11-30T05:54:35.910Z,1.70
2022-11-30T05:57:02.763Z,1.70
2022-11-30T05:59:29.633Z,1.80
2022-11-30T06:01:56.619Z,1.80
2022-11-30T06:04:23.583Z,1.80
2022-11-30T06:06:52.226Z,1.80
2022-11-30T06:09:19.114Z,1.70
2022-11-30T06:11:45.948Z,1.70
2022-11-30T06:14:12.804Z,1.80
2022-11-30T06:16:39.956Z,1.70
2022-11-30T06:19:07.004Z,1.60
2022-11-30T06:21:34.213Z,1.60
2022-11-30T06:24:01.334Z,1.60
2022-11-30T06:26:28.248Z,1.60
2022-11-30T06:28:55.137Z,1.60
2022-11-30T06:31:22.024Z,1.60
2022-11-30T06:33:48.869Z,1.70
2022-11-30T06:36:22.295Z,1.70
2022-11-30T06:38:49.369Z,1.60
2022-11-30T06:41:16.359Z,1.70
2022-11-30T06:43:43.193Z,1.60
2022-11-30T06:46:10.227Z,1.60
2022-11-30T06:48:37.148Z,1.60
2022-11-30T06:51:10.642Z,1.60
2022-11-30T06:53:37.791Z,1.60
2022-11-30T06:56:10.793Z,1.70
2022-11-30T06:58:39.640Z,1.60
2022-11-30T07:01:08.568Z,1.70
2022-11-30T07:03:35.912Z,1.60
2022-11-30T07:06:10.369Z,1.60
2022-11-30T07:08:37.963Z,1.70
2022-11-30T07:11:05.595Z,1.70
2022-11-30T07:13:32.716Z,1.60
2022-11-30T07:15:59.647Z,1.70
2022-11-30T07:18:31.737Z,1.80
2022-11-30T07:21:00.853Z,1.80
2022-11-30T07:23:52.333Z,1.70
2022-11-30T07:26:23.097Z,1.60
2022-11-30T07:28:54.835Z,1.60
2022-11-30T07:31:23.347Z,1.60
2022-11-30T07:33:50.874Z,1.70
2022-11-30T07:36:19.719Z,1.70
2022-11-30T07:38:47.650Z,1.60
2022-11-30T07:41:14.558Z,1.60
2022-11-30T07:43:41.483Z,1.60
2022-11-30T07:46:09.791Z,1.70
2022-11-30T07:48:36.635Z,1.60
2022-11-30T07:51:08.769Z,1.60
2022-11-30T07:53:35.677Z,1.60
2022-11-30T07:56:10.418Z,1.70
2022-11-30T07:58:37.788Z,1.60
2022-11-30T08:01:07.527Z,1.60
2022-11-30T08:03:37.051Z,1.60
2022-11-30T08:06:28.248Z,1.60
2022-11-30T08:08:58.322Z,1.60
2022-11-30T08:11:28.441Z,1.80
2022-11-30T08:13:55.292Z,1.70
2022-11-30T08:16:25.102Z,1.60
2022-11-30T08:18:52.752Z,1.50
2022-11-30T08:21:21.360Z,1.40
2022-11-30T08:23:54.271Z,1.40
2022-11-30T08:26:23.514Z,1.50
2022-11-30T08:28:51.881Z,1.50
2022-11-30T08:31:33.776Z,1.50
2022-11-30T08:34:04.231Z,1.60
2022-11-30T08:36:31.462Z,1.60
2022-11-30T08:38:59.528Z,1.60
2022-11-30T08:41:26.509Z,1.70
2022-11-30T08:43:53.925Z,1.70
2022-11-30T08:49:25.777Z,1.60
2022-11-30T08:54:45.338Z,1.60
2022-11-30T08:57:13.025Z,1.50
2022-11-30T08:59:39.869Z,1.50
2022-11-30T09:02:06.808Z,1.50
2022-11-30T09:04:33.802Z,1.50
2022-11-30T09:07:01.073Z,1.50
2022-11-30T09:09:28.241Z,1.60
2022-11-30T09:11:55.148Z,1.60
2022-11-30T09:14:22.007Z,1.60
2022-11-30T09:16:48.966Z,1.60
2022-11-30T09:19:15.863Z,1.50
2022-11-30T09:21:49.618Z,1.50
2022-11-30T09:24:18.521Z,1.40
2022-11-30T09:26:45.414Z,1.40
2022-11-30T09:29:12.210Z,1.60
2022-11-30T09:31:39.145Z,1.50
2022-11-30T09:34:05.989Z,1.60
2022-11-30T09:36:34.095Z,1.60
2022-11-30T09:39:01.236Z,1.80
2022-11-30T09:41:49.363Z,1.80
2022-11-30T09:44:30.093Z,1.90
2022-11-30T09:47:07.771Z,1.90
2022-11-30T09:49:37.185Z,1.70
2022-11-30T09:52:09.879Z,1.60
2022-11-30T09:54:45.693Z,1.80
2022-11-30T09:57:18.760Z,1.80
2022-11-30T10:00:06.469Z,1.60
2022-11-30T10:02:38.611Z,1.60
2022-11-30T10:05:21.911Z,1.50
2022-11-30T10:08:17.838Z,1.60
2022-11-30T10:11:14.608Z,1.70
2022-11-30T10:13:41.439Z,1.70
2022-11-30T10:16:23.180Z,1.70
2022-11-30T10:19:08.075Z,1.70
2022-11-30T10:21:56.199Z,1.60
2022-11-30T10:24:36.823Z,1.60
2022-11-30T10:27:27.403Z,1.60
2022-11-30T10:29:55.452Z,1.70
2022-11-30T10:32:29.256Z,1.60
2022-11-30T10:35:03.661Z,1.70
2022-11-30T10:37:37.161Z,1.70
2022-11-30T10:40:13.248Z,1.70
2022-11-30T10:42:46.126Z,1.70
2022-11-30T10:45:17.410Z,1.70
2022-11-30T10:47:52.774Z,1.80
2022-11-30T10:50:24.105Z,1.70
2022-11-30T10:52:57.315Z,1.80
2022-11-30T10:55:26.971Z,1.90
2022-11-30T10:58:22.253Z,2.00
2022-11-30T11:01:10.756Z,2.00
2022-11-30T11:03:38.860Z,2.00
2022-11-30T11:06:24.626Z,1.90
2022-11-30T11:08:51.502Z,1.90
2022-11-30T11:11:38.089Z,1.80
2022-11-30T11:14:18.887Z,2.00
2022-11-30T11:17:03.723Z,1.90
2022-11-30T11:19:36.023Z,1.70
2022-11-30T11:22:17.719Z,1.80
2022-11-30T11:24:45.364Z,1.70
2022-11-30T11:27:20.952Z,1.80
2022-11-30T11:30:08.070Z,1.80
2022-11-30T11:32:35.414Z,1.80
2022-11-30T11:35:02.358Z,1.80
2022-11-30T11:37:32.883Z,1.90
2022-11-30T11:40:08.902Z,1.90
2022-11-30T11:42:45.398Z,1.90
2022-11-30T11:45:25.998Z,1.80
2022-11-30T11:48:11.792Z,1.80
2022-11-30T11:53:55.884Z,2.00
2022-11-30T11:56:25.475Z,2.00
2022-11-30T11:59:18.073Z,1.90
2022-11-30T12:01:54.118Z,1.90
2022-11-30T12:04:38.267Z,2.00
2022-11-30T12:07:28.644Z,1.90
2022-11-30T12:10:50.045Z,2.00
2022-11-30T12:13:16.596Z,1.90
2022-11-30T12:16:24.130Z,1.90
2022-11-30T12:19:17.540Z,2.00
2022-11-30T12:21:55.773Z,1.80
2022-11-30T12:24:51.979Z,1.90
2022-11-30T12:27:30.799Z,1.80
2022-11-30T12:30:15.802Z,1.80
2022-11-30T12:33:04.418Z,1.80
2022-11-30T12:35:39.421Z,1.90
2022-11-30T12:38:21.113Z,1.80
2022-11-30T12:41:02.417Z,1.80
2022-11-30T12:43:52.248Z,1.80
2022-11-30T12:46:31.234Z,1.70
2022-11-30T12:49:13.303Z,1.80
2022-11-30T12:52:08.805Z,1.80
2022-11-30T12:55:12.136Z,1.90
2022-11-30T12:58:08.262Z,1.90
2022-11-30T13:01:11.229Z,2.00
2022-11-30T13:03:51.775Z,1.90
2022-11-30T13:06:37.740Z,1.80
2022-11-30T13:09:17.229Z,1.70
2022-11-30T13:11:53.844Z,1.80
2022-11-30T13:14:24.208Z,1.80
2022-11-30T13:17:07.318Z,1.90
2022-11-30T13:19:37.301Z,1.80
2022-11-30T13:22:09.557Z,1.90
2022-11-30T13:24:41.837Z,1.80
2022-11-30T13:27:29.649Z,1.90
2022-11-30T13:30:14.771Z,1.90
2022-11-30T13:32:58.554Z,1.80
2022-11-30T13:35:29.000Z,1.70
2022-11-30T13:41:04.222Z,1.70
2022-11-30T13:43:36.308Z,1.70
2022-11-30T13:46:23.759Z,1.70
2022-11-30T13:49:10.589Z,1.70
2022-11-30T13:51:40.398Z,1.70
2022-11-30T13:54:38.715Z,1.80
2022-11-30T13:57:27.385Z,1.90
2022-11-30T13:59:59.572Z,1.80
2022-11-30T14:02:58.287Z,1.70
2022-11-30T14:05:34.608Z,1.80
2022-11-30T14:08:01.420Z,1.70
2022-11-30T14:10:32.918Z,1.80
2022-11-30T14:13:05.395Z,1.80
2022-11-30T14:15:38.250Z,1.80
2022-11-30T14:18:08.127Z,1.80
2022-11-30T14:20:38.145Z,1.70
2022-11-30T14:23:41.460Z,1.70
2022-11-30T14:26:17.588Z,1.80
2022-11-30T14:28:51.857Z,1.70
2022-11-30T14:31:25.885Z,1.70
2022-11-30T14:34:29.662Z,1.70
2022-11-30T14:37:21.868Z,1.70
2022-11-30T14:39:50.567Z,1.80
2022-11-30T14:42:23.361Z,1.70
2022-11-30T14:44:50.906Z,1.70
2022-11-30T14:47:28.327Z,1.60
2022-11-30T14:49:57.191Z,1.70
2022-11-30T14:52:50.853Z,1.70
2022-11-30T14:55:28.310Z,1.80
2022-11-30T14:58:28.866Z,1.70
2022-11-30T15:00:57.401Z,1.70
2022-11-30T15:03:35.860Z,1.80
2022-11-30T15:06:06.712Z,1.70
2022-11-30T15:08:41.952Z,1.70
2022-11-30T15:11:13.762Z,1.80
2022-11-30T15:13:49.528Z,1.80
2022-11-30T15:16:21.187Z,1.70
2022-11-30T15:18:49.032Z,1.70
2022-11-30T15:21:27.338Z,1.70
2022-11-30T15:23:59.436Z,1.80
2022-11-30T15:26:41.777Z,1.70
2022-11-30T15:29:33.136Z,1.50
2022-11-30T15:32:03.923Z,1.50
2022-11-30T15:34:37.341Z,1.30
2022-11-30T15:37:05.179Z,1.30
2022-11-30T15:39:32.798Z,1.40
2022-11-30T15:42:01.999Z,1.50
2022-11-30T15:44:49.066Z,1.50
2022-11-30T15:47:35.822Z,1.60
2022-11-30T15:50:03.512Z,1.50
2022-11-30T15:52:31.287Z,1.60
2022-11-30T15:55:03.259Z,1.50
2022-11-30T15:58:05.907Z,1.50
2022-11-30T16:00:32.792Z,1.50
2022-11-30T16:03:13.493Z,1.40
2022-11-30T16:05:40.716Z,1.50
2022-11-30T16:08:18.447Z,1.50
2022-11-30T16:10:45.576Z,1.50
2022-11-30T16:13:19.064Z,1.50
2022-11-30T16:15:51.864Z,1.50
2022-11-30T16:18:27.128Z,1.50
2022-11-30T16:21:01.915Z,1.50
2022-11-30T16:23:29.021Z,1.50
2022-11-30T16:25:56.216Z,1.50
2022-11-30T16:28:23.543Z,1.50
2022-11-30T16:30:51.098Z,1.50
2022-11-30T16:33:23.342Z,1.50
2022-11-30T16:36:04.493Z,1.50
2022-11-30T16:38:31.389Z,1.40
2022-11-30T16:41:17.497Z,1.40
2022-11-30T16:43:45.693Z,1.50
2022-11-30T16:46:19.221Z,1.40
2022-11-30T16:48:47.201Z,1.30
2022-11-30T16:51:30.838Z,1.40
2022-11-30T16:53:58.128Z,1.30
2022-11-30T16:56:25.560Z,1.40
2022-11-30T16:58:52.689Z,1.30
2022-11-30T17:01:31.591Z,1.30
2022-11-30T17:04:23.004Z,1.30
2022-11-30T17:06:52.775Z,1.40
2022-11-30T17:09:22.286Z,1.40
2022-11-30T17:11:50.815Z,1.40
2022-11-30T17:14:18.524Z,1.30
2022-11-30T17:16:45.500Z,1.30
2022-11-30T17:19:12.771Z,1.30
2022-11-30T17:21:40.291Z,1.30
2022-11-30T17:24:07.566Z,1.40
2022-11-30T17:26:35.873Z,1.40
2022-11-30T17:29:02.879Z,1.40
2022-11-30T17:31:30.071Z,1.40
2022-11-30T17:33:56.964Z,1.40
2022-11-30T17:36:23.856Z,1.40
2022-11-30T17:38:50.816Z,1.30
2022-11-30T17:41:19.994Z,1.30
2022-11-30T17:43:48.226Z,1.20
2022-11-30T17:46:17.211Z,1.30
2022-11-30T17:48:44.520Z,1.40
2022-11-30T17:51:12.505Z,1.30
2022-11-30T17:53:41.131Z,1.30
2022-11-30T17:56:10.336Z,1.40
2022-11-30T17:58:43.730Z,1.30
2022-11-30T18:01:22.854Z,1.30
2022-11-30T18:03:50.613Z,1.20
2022-11-30T18:06:17.723Z,1.20
2022-11-30T18:08:45.235Z,1.20
2022-11-30T18:11:31.102Z,1.10
2022-11-30T18:14:01.805Z,1.10
2022-11-30T18:16:37.170Z,1.00
2022-11-30T18:19:12.038Z,1.10
2022-11-30T18:21:40.933Z,1.10
2022-11-30T18:24:09.366Z,1.10
2022-11-30T18:26:36.235Z,1.10
2022-11-30T18:29:03.401Z,1.10
2022-11-30T18:31:31.331Z,1.00
2022-11-30T18:33:59.918Z,1.10
2022-11-30T18:36:27.394Z,0.90
2022-11-30T18:38:54.318Z,1.00
2022-11-30T18:41:22.279Z,0.90
2022-11-30T18:43:49.165Z,0.80
2022-11-30T18:46:16.096Z,0.80
2022-11-30T18:48:43.091Z,0.70
2022-11-30T18:51:18.262Z,0.70
2022-11-30T18:53:45.190Z,0.60
2022-11-30T18:56:17.649Z,0.50
2022-11-30T18:58:45.429Z,0.60
2022-11-30T19:01:18.647Z,0.70
2022-11-30T19:03:57.096Z,0.70
2022-11-30T19:06:25.302Z,0.70
2022-11-30T19:08:53.127Z,0.80
2022-11-30T19:11:19.933Z,0.70
2022-11-30T19:13:46.849Z,0.70
2022-11-30T19:16:17.591Z,0.80
2022-11-30T19:18:47.419Z,0.70
2022-11-30T19:21:18.302Z,0.80
2022-11-30T19:23:46.556Z,0.70
2022-11-30T19:26:14.356Z,0.80
2022-11-30T19:28:44.042Z,0.80
2022-11-30T19:31:19.490Z,0.90
2022-11-30T19:33:49.404Z,0.80
2022-11-30T19:36:19.414Z,0.80
2022-11-30T19:38:46.533Z,0.90
2022-11-30T19:41:15.456Z,0.90
2022-11-30T19:43:47.799Z,0.90
2022-11-30T19:46:18.205Z,1.00
2022-11-30T19:48:45.327Z,0.90
2022-11-30T19:51:18.027Z,0.90
2022-11-30T19:53:45.967Z,0.90
2022-11-30T19:56:15.929Z,0.70
2022-11-30T19:58:44.611Z,0.90
2022-11-30T20:01:15.750Z,1.00
2022-11-30T20:03:44.462Z,0.90
2022-11-30T20:06:11.782Z,0.80
2022-11-30T20:08:38.984Z,0.90
2022-11-30T20:11:10.274Z,0.90
2022-11-30T20:13:37.834Z,0.80
2022-11-30T20:16:13.195Z,0.80
2022-11-30T20:18:45.749Z,1.00
2022-11-30T20:21:25.102Z,0.90
2022-11-30T20:23:53.171Z,0.90
2022-11-30T20:26:22.797Z,0.90
2022-11-30T20:28:51.101Z,0.90
2022-11-30T20:31:20.608Z,0.80
2022-11-30T20:33:47.916Z,0.90
2022-11-30T20:36:16.844Z,0.80
2022-11-30T20:38:44.215Z,0.90
2022-11-30T20:41:16.090Z,0.90
2022-11-30T20:43:44.327Z,0.90
2022-11-30T20:46:22.339Z,0.90
2022-11-30T20:48:50.291Z,0.90
2022-11-30T20:51:35.563Z,0.90
2022-11-30T20:54:06.738Z,1.00
2022-11-30T20:56:36.481Z,0.90
2022-11-30T20:59:06.251Z,1.00
2022-11-30T21:01:33.562Z,1.10
2022-11-30T21:04:01.445Z,1.10
2022-11-30T21:06:30.108Z,1.00
2022-11-30T21:08:57.155Z,0.90
2022-11-30T21:11:24.164Z,0.90
2022-11-30T21:13:52.557Z,0.90
2022-11-30T21:16:27.230Z,1.00
2022-11-30T21:18:56.075Z,0.90
2022-11-30T21:21:24.819Z,0.90
2022-11-30T21:23:51.959Z,0.90
2022-11-30T21:26:24.139Z,1.00
2022-11-30T21:28:54.391Z,0.90
2022-11-30T21:31:22.244Z,0.70
2022-11-30T21:33:53.100Z,0.80
2022-11-30T21:36:21.726Z,0.70
2022-11-30T21:38:56.080Z,0.70
2022-11-30T21:41:25.375Z,0.70
2022-11-30T21:43:52.424Z,0.60
2022-11-30T21:46:20.870Z,0.70
2022-11-30T21:48:50.161Z,0.90
2022-11-30T21:51:20.510Z,0.70
2022-11-30T21:53:49.750Z,0.80
2022-11-30T21:56:19.194Z,0.80
2022-11-30T21:58:48.442Z,0.70
2022-11-30T22:01:28.628Z,0.70
2022-11-30T22:03:57.011Z,0.80
2022-11-30T22:06:25.628Z,0.80
2022-11-30T22:08:52.729Z,0.60
2022-11-30T22:11:21.548Z,0.70
2022-11-30T22:13:55.190Z,0.80
2022-11-30T22:16:24.456Z,0.80
2022-11-30T22:18:56.221Z,0.80
2022-11-30T22:21:25.706Z,0.60
2022-11-30T22:23:59.917Z,0.50
2022-11-30T22:26:41.030Z,0.70
2022-11-30T22:29:16.681Z,0.70
2022-11-30T22:31:45.667Z,0.80
2022-11-30T22:34:13.402Z,0.80
2022-11-30T22:36:42.786Z,0.90
2022-11-30T22:39:18.800Z,0.80
2022-11-30T22:41:51.224Z,0.70
2022-11-30T22:44:21.724Z,0.60
2022-11-30T22:46:48.707Z,0.70
2022-11-30T22:49:20.813Z,0.60
2022-11-30T22:51:48.418Z,0.70
2022-11-30T22:54:16.154Z,0.70
2022-11-30T22:56:43.079Z,0.60
2022-11-30T22:59:14.219Z,0.70
2022-11-30T23:01:46.391Z,0.60
2022-11-30T23:04:18.703Z,0.50
2022-11-30T23:06:46.787Z,0.50
2022-11-30T23:09:19.773Z,0.50
2022-11-30T23:11:46.762Z,0.40
2022-11-30T23:14:16.186Z,0.40
2022-11-30T23:16:43.541Z,0.50
2022-11-30T23:19:11.895Z,0.50
2022-11-30T23:21:44.908Z,0.50
2022-11-30T23:24:20.634Z,0.50
2022-11-30T23:26:48.235Z,0.50
2022-11-30T23:29:16.921Z,0.50
2022-11-30T23:31:45.381Z,0.60
2022-11-30T23:34:16.513Z,0.50
2022-11-30T23:36:43.460Z,0.40
2022-11-30T23:39:13.327Z,0.40
2022-11-30T23:41:40.957Z,0.40
2022-11-30T23:44:09.081Z,0.30
2022-11-30T23:46:36.409Z,0.40
2022-11-30T23:49:03.604Z,0.50
2022-11-30T23:51:30.683Z,0.50
2022-11-30T23:53:57.447Z,0.40
2022-11-30T23:56:24.746Z,0.40
2022-11-30T23:58:52.050Z,0.60
